Eversley, United Kingdom
Current Conditions -  °F | °C
As of 7:20 PM on Thursday 27 Nov 2014 (Local Time) from EGLF Reporting Station
Haze Haze  
Wind Chill: 45°   Ceiling: Unl
Heat Index: 45°   Visibility: 1.1mi
Dew Point: 45°   Wind: 3mph
Humidity: 100%   Direction: 70°ENE
Pressure: 29.56"   Gusts: NA
Location:  51.35°N, 0.89°W
Report Text: EGLF 271920Z 07003KT 1800 BR FEW004 07/07 Q1001
Loading
Personal Weather Stations






























Interactive Weather Map New forecast layout! Learn more

10-Day Weather Forecast

Advertisements
Track Severe Weather on mobile